createdAt,value
2019-02-27T00:02:36.090Z,81.99
2019-02-27T00:08:15.901Z,82.25
2019-02-27T00:10:44.705Z,82.14
2019-02-27T00:13:13.533Z,82.19
2019-02-27T00:15:42.327Z,82.19
2019-02-27T00:21:10.173Z,82.30
2019-02-27T00:23:36.396Z,82.44
2019-02-27T00:26:08.805Z,82.44
2019-02-27T00:28:35.723Z,82.79
2019-02-27T00:31:04.602Z,82.81
2019-02-27T00:33:33.464Z,82.69
2019-02-27T00:36:02.162Z,83.02
2019-02-27T00:38:31.023Z,83.18
2019-02-27T00:40:59.801Z,83.07
2019-02-27T00:43:29.089Z,83.37
2019-02-27T00:45:58.179Z,83.41
2019-02-27T00:48:26.937Z,84.28
2019-02-27T00:50:55.655Z,84.21
2019-02-27T00:53:25.147Z,84.10
2019-02-27T00:58:26.812Z,84.07
2019-02-27T01:00:54.696Z,84.16
2019-02-27T01:03:25.982Z,84.03
2019-02-27T01:08:48.987Z,84.37
2019-02-27T01:11:18.431Z,83.93
2019-02-27T01:16:17.207Z,83.89
2019-02-27T01:21:19.086Z,84.09
2019-02-27T01:26:15.594Z,84.28
2019-02-27T01:28:45.473Z,84.31
2019-02-27T01:31:14.704Z,84.21
2019-02-27T01:33:43.456Z,84.23
2019-02-27T01:36:12.125Z,84.23
2019-02-27T01:38:40.936Z,84.15
2019-02-27T01:41:09.666Z,84.11
2019-02-27T01:43:40.061Z,84.15
2019-02-27T01:46:08.879Z,84.05
2019-02-27T01:48:42.562Z,84.35
2019-02-27T01:51:08.132Z,84.37
2019-02-27T01:53:37.930Z,84.34
2019-02-27T01:56:07.410Z,84.39
2019-02-27T01:58:36.117Z,84.57
2019-02-27T02:01:44.591Z,84.64
2019-02-27T02:04:13.338Z,84.79
2019-02-27T02:06:42.038Z,84.66
2019-02-27T02:09:52.135Z,84.86
2019-02-27T02:15:28.885Z,84.62
2019-02-27T02:18:36.237Z,84.46
2019-02-27T02:24:42.296Z,84.59
2019-02-27T02:33:42.994Z,84.59
2019-02-27T02:36:50.336Z,84.49
2019-02-27T02:39:57.644Z,84.12
2019-02-27T02:43:06.321Z,84.18
2019-02-27T02:46:13.572Z,84.16
2019-02-27T02:49:22.147Z,84.59
2019-02-27T02:55:20.163Z,84.69
2019-02-27T02:58:28.767Z,85.00
2019-02-27T03:01:37.289Z,85.18
2019-02-27T03:04:47.979Z,85.78
2019-02-27T03:07:53.737Z,85.99
2019-02-27T03:11:02.296Z,87.07
2019-02-27T03:14:17.256Z,87.09
2019-02-27T03:17:20.012Z,87.51
2019-02-27T03:20:27.283Z,87.68
2019-02-27T03:23:35.884Z,87.83
2019-02-27T03:26:43.358Z,88.22
2019-02-27T03:29:53.408Z,88.25
2019-02-27T03:33:02.330Z,88.11
2019-02-27T03:36:09.637Z,88.18
2019-02-27T03:39:17.044Z,87.76
2019-02-27T03:42:24.279Z,87.85
2019-02-27T03:45:31.843Z,87.56
2019-02-27T03:52:00.482Z,87.12
2019-02-27T03:55:06.403Z,87.06
2019-02-27T03:58:13.655Z,86.82
2019-02-27T04:01:22.274Z,86.81
2019-02-27T04:04:30.551Z,86.85
2019-02-27T04:07:38.743Z,86.99
2019-02-27T04:10:07.593Z,86.88
2019-02-27T04:12:36.327Z,87.00
2019-02-27T04:17:54.497Z,86.89
2019-02-27T04:20:23.208Z,87.19
2019-02-27T04:22:53.703Z,87.13
2019-02-27T04:25:22.491Z,87.37
2019-02-27T04:27:55.178Z,87.03
2019-02-27T04:30:21.816Z,87.19
2019-02-27T04:32:50.500Z,86.98
2019-02-27T04:35:19.243Z,86.90
2019-02-27T04:37:47.910Z,86.74
2019-02-27T04:40:16.873Z,86.67
2019-02-27T04:42:45.537Z,86.57
2019-02-27T04:45:14.349Z,86.47
2019-02-27T04:47:43.019Z,86.48
2019-02-27T04:50:11.919Z,86.44
2019-02-27T04:52:40.606Z,86.64
2019-02-27T04:55:09.269Z,86.39
2019-02-27T04:57:37.731Z,86.63
2019-02-27T05:00:46.209Z,86.50
2019-02-27T05:03:14.986Z,86.55
2019-02-27T05:05:43.666Z,86.44
2019-02-27T05:08:12.355Z,86.35
2019-02-27T05:10:41.271Z,86.29
2019-02-27T05:13:10.029Z,86.16
2019-02-27T05:15:39.464Z,86.07
2019-02-27T05:18:08.897Z,85.86
2019-02-27T05:20:37.471Z,86.46
2019-02-27T05:23:06.476Z,86.49
2019-02-27T05:25:35.150Z,86.51
2019-02-27T05:28:03.816Z,86.72
2019-02-27T05:30:32.527Z,87.07
2019-02-27T05:33:02.115Z,87.07
2019-02-27T05:35:31.756Z,86.98
2019-02-27T05:41:08.644Z,86.85
2019-02-27T05:43:56.480Z,87.15
2019-02-27T05:46:25.154Z,86.96
2019-02-27T05:48:53.990Z,86.69
2019-02-27T05:51:22.884Z,86.24
2019-02-27T05:53:51.593Z,86.07
2019-02-27T05:56:20.294Z,85.32
2019-02-27T05:58:48.951Z,85.37
2019-02-27T06:01:17.783Z,84.97
2019-02-27T06:03:49.451Z,85.02
2019-02-27T06:08:53.038Z,84.51
2019-02-27T06:11:21.776Z,84.17
2019-02-27T06:13:50.441Z,84.46
2019-02-27T06:16:19.207Z,84.28
2019-02-27T06:18:47.931Z,84.10
2019-02-27T06:21:16.671Z,83.09
2019-02-27T06:23:45.385Z,82.87
2019-02-27T06:26:14.160Z,82.97
2019-02-27T06:28:43.005Z,82.18
2019-02-27T06:34:00.930Z,82.22
2019-02-27T06:36:29.665Z,82.62
2019-02-27T06:39:00.451Z,82.94
2019-02-27T06:41:28.891Z,82.77
2019-02-27T06:46:55.007Z,81.96
2019-02-27T06:49:23.850Z,80.77
2019-02-27T06:51:52.551Z,81.27
2019-02-27T06:54:21.288Z,80.55
2019-02-27T06:56:49.917Z,80.71
2019-02-27T06:59:18.813Z,80.74
2019-02-27T07:01:48.101Z,80.59
2019-02-27T07:09:47.434Z,79.12
2019-02-27T07:12:16.460Z,79.26
2019-02-27T07:14:45.467Z,79.99
2019-02-27T07:17:14.307Z,79.36
2019-02-27T07:19:42.960Z,78.37
2019-02-27T07:22:12.637Z,78.82
2019-02-27T07:24:42.172Z,78.41
2019-02-27T07:27:10.936Z,78.33
2019-02-27T07:29:39.633Z,78.30
2019-02-27T07:32:08.335Z,78.03
2019-02-27T07:37:26.511Z,76.93
2019-02-27T07:39:55.748Z,76.62
2019-02-27T07:42:24.572Z,74.48
2019-02-27T07:44:53.251Z,74.59
2019-02-27T07:47:22.005Z,73.88
2019-02-27T07:49:50.666Z,73.27
2019-02-27T07:52:19.364Z,72.88
2019-02-27T07:54:48.110Z,72.78
2019-02-27T07:57:16.765Z,74.04
2019-02-27T07:59:45.789Z,72.87
2019-02-27T08:02:14.480Z,71.82
2019-02-27T08:04:43.143Z,72.62
2019-02-27T08:07:12.419Z,71.72
2019-02-27T08:10:04.544Z,72.46
2019-02-27T08:12:32.282Z,71.39
2019-02-27T08:15:01.031Z,70.69
2019-02-27T08:20:21.462Z,70.91
2019-02-27T08:22:50.092Z,70.00
2019-02-27T08:28:15.866Z,70.83
2019-02-27T08:30:44.593Z,70.14
2019-02-27T08:33:15.215Z,69.81
2019-02-27T08:38:19.283Z,69.61
2019-02-27T08:40:48.009Z,68.32
2019-02-27T08:43:16.718Z,68.19
2019-02-27T08:45:45.463Z,67.81
2019-02-27T08:48:16.909Z,67.12
2019-02-27T08:53:13.558Z,66.94
2019-02-27T08:55:42.251Z,66.69
2019-02-27T08:58:11.053Z,66.20
2019-02-27T09:00:39.772Z,65.46
2019-02-27T09:06:09.691Z,64.33
2019-02-27T09:08:43.259Z,63.58
2019-02-27T09:11:08.824Z,62.91
2019-02-27T09:13:37.508Z,61.09
2019-02-27T09:16:06.148Z,59.83
2019-02-27T09:18:36.446Z,58.88
2019-02-27T09:21:05.309Z,57.47
2019-02-27T09:23:34.188Z,55.73
2019-02-27T09:26:03.578Z,54.94
2019-02-27T09:31:04.307Z,53.41
2019-02-27T09:33:38.587Z,51.84
2019-02-27T09:38:38.705Z,50.39
2019-02-27T09:41:12.193Z,47.94
2019-02-27T09:43:37.556Z,47.38
2019-02-27T09:46:06.308Z,45.20
2019-02-27T09:48:35.024Z,44.44
2019-02-27T09:51:03.674Z,42.65
2019-02-27T09:53:33.954Z,42.97
2019-02-27T09:56:02.769Z,42.88
2019-02-27T09:58:31.379Z,40.87
2019-02-27T10:01:20.852Z,40.27
2019-02-27T10:03:52.051Z,39.72
2019-02-27T10:06:19.970Z,39.76
2019-02-27T10:08:48.642Z,39.88
2019-02-27T10:14:04.821Z,37.45
2019-02-27T10:16:34.855Z,36.92
2019-02-27T10:19:03.888Z,36.01
2019-02-27T10:21:32.770Z,35.40
2019-02-27T10:24:04.356Z,33.91
2019-02-27T10:26:31.965Z,35.28
2019-02-27T10:29:00.520Z,35.07
2019-02-27T10:31:29.028Z,34.18
2019-02-27T10:33:57.711Z,34.60
2019-02-27T10:36:26.395Z,34.82
2019-02-27T10:38:55.050Z,33.67
2019-02-27T10:41:23.641Z,33.20
2019-02-27T10:43:54.022Z,32.48
2019-02-27T10:46:23.770Z,30.71
2019-02-27T10:51:28.221Z,31.13
2019-02-27T10:53:56.879Z,29.84
2019-02-27T10:56:25.442Z,29.28
2019-02-27T10:58:54.041Z,29.95
2019-02-27T11:01:22.629Z,28.45
2019-02-27T11:03:51.308Z,28.57
2019-02-27T11:06:19.835Z,28.57
2019-02-27T11:08:48.429Z,27.38
2019-02-27T11:11:17.076Z,27.16
2019-02-27T11:13:45.561Z,26.53
2019-02-27T11:16:15.522Z,27.48
2019-02-27T11:18:44.561Z,26.09
2019-02-27T11:21:13.117Z,25.86
2019-02-27T11:23:41.775Z,26.00
2019-02-27T11:26:10.401Z,24.77
2019-02-27T11:28:38.995Z,24.59
2019-02-27T11:31:47.440Z,23.30
2019-02-27T11:34:16.227Z,21.95
2019-02-27T11:36:46.211Z,22.34
2019-02-27T11:39:15.267Z,22.86
2019-02-27T11:41:46.083Z,22.93
2019-02-27T11:44:14.435Z,22.73
2019-02-27T11:46:44.624Z,22.62
2019-02-27T11:49:13.278Z,22.93
2019-02-27T11:51:41.866Z,21.86
2019-02-27T11:54:10.654Z,21.36
2019-02-27T11:56:39.264Z,21.39
2019-02-27T11:59:10.343Z,21.04
2019-02-27T12:01:38.142Z,21.92
2019-02-27T12:04:06.788Z,20.42
2019-02-27T12:06:35.514Z,19.39
2019-02-27T12:11:58.570Z,18.58
2019-02-27T12:14:27.354Z,19.67
2019-02-27T12:16:55.962Z,19.65
2019-02-27T12:19:24.834Z,19.21
2019-02-27T12:24:42.436Z,20.44
2019-02-27T12:27:24.450Z,18.65
2019-02-27T12:29:41.899Z,18.57
2019-02-27T12:32:10.583Z,18.51
2019-02-27T12:34:39.284Z,17.66
2019-02-27T12:37:16.387Z,17.90
2019-02-27T12:39:38.726Z,16.74
2019-02-27T12:42:07.838Z,15.86
2019-02-27T12:44:37.627Z,16.30
2019-02-27T12:47:06.326Z,17.50
2019-02-27T12:49:34.823Z,17.75
2019-02-27T12:52:03.479Z,18.76
2019-02-27T12:54:32.445Z,19.71
2019-02-27T12:57:01.224Z,21.09
2019-02-27T12:59:30.767Z,21.82
2019-02-27T13:02:08.109Z,20.92
2019-02-27T13:04:30.544Z,20.93
2019-02-27T13:06:59.230Z,20.99
2019-02-27T13:09:47.290Z,21.13
2019-02-27T13:12:17.356Z,21.05
2019-02-27T13:14:46.379Z,21.71
2019-02-27T13:17:15.070Z,22.41
2019-02-27T13:19:43.723Z,22.69
2019-02-27T13:22:12.355Z,22.60
2019-02-27T13:24:40.933Z,22.81
2019-02-27T13:27:09.949Z,23.41
2019-02-27T13:29:39.744Z,23.52
2019-02-27T13:32:08.179Z,23.70
2019-02-27T13:34:37.714Z,23.18
2019-02-27T13:37:06.927Z,22.22
2019-02-27T13:39:36.529Z,22.38
2019-02-27T13:42:45.010Z,22.24
2019-02-27T13:45:53.466Z,21.94
2019-02-27T13:48:22.099Z,21.71
2019-02-27T13:50:50.677Z,21.21
2019-02-27T13:53:25.788Z,19.34
2019-02-27T13:55:49.800Z,20.02
2019-02-27T13:58:18.528Z,19.51
2019-02-27T14:00:47.157Z,19.36
2019-02-27T14:06:47.416Z,20.41
2019-02-27T14:09:15.237Z,20.92
2019-02-27T14:11:43.892Z,21.10
2019-02-27T14:14:15.102Z,19.94
2019-02-27T14:16:43.009Z,20.43
2019-02-27T14:19:11.582Z,20.37
2019-02-27T14:21:40.374Z,20.24
2019-02-27T14:24:08.938Z,20.45
2019-02-27T14:26:38.253Z,20.34
2019-02-27T14:29:08.038Z,20.99
2019-02-27T14:31:36.674Z,20.87
2019-02-27T14:34:06.113Z,20.74
2019-02-27T14:36:34.659Z,20.86
2019-02-27T14:39:03.311Z,20.33
2019-02-27T14:41:32.081Z,19.28
2019-02-27T14:44:00.759Z,18.04
2019-02-27T14:46:29.303Z,17.34
2019-02-27T14:48:58.162Z,17.78
2019-02-27T14:51:26.692Z,18.21
2019-02-27T14:53:55.906Z,17.87
2019-02-27T14:56:25.506Z,18.00
2019-02-27T14:58:56.546Z,18.64
2019-02-27T15:01:24.371Z,18.48
2019-02-27T15:03:52.999Z,18.55
2019-02-27T15:06:21.654Z,19.40
2019-02-27T15:08:57.774Z,20.56
2019-02-27T15:11:20.519Z,21.56
2019-02-27T15:13:49.307Z,22.29
2019-02-27T15:16:17.856Z,23.01
2019-02-27T15:18:46.362Z,23.59
2019-02-27T15:21:14.876Z,24.02
2019-02-27T15:23:43.443Z,24.51
2019-02-27T15:26:13.689Z,25.02
2019-02-27T15:28:42.213Z,25.10
2019-02-27T15:31:10.680Z,25.45
2019-02-27T15:33:39.233Z,25.67
2019-02-27T15:36:08.095Z,25.91
2019-02-27T15:38:36.677Z,25.88
2019-02-27T15:41:05.632Z,26.01
2019-02-27T15:43:35.362Z,26.47
2019-02-27T15:46:03.845Z,26.54
2019-02-27T15:48:32.318Z,26.68
2019-02-27T15:51:00.725Z,26.57
2019-02-27T15:53:29.315Z,26.77
2019-02-27T15:55:57.834Z,26.69
2019-02-27T15:58:28.035Z,26.80
2019-02-27T16:00:56.919Z,26.71
2019-02-27T16:06:20.179Z,27.17
2019-02-27T16:08:49.007Z,27.53
2019-02-27T16:11:18.406Z,27.73
2019-02-27T16:13:47.250Z,27.36
2019-02-27T16:16:15.929Z,27.65
2019-02-27T16:18:44.977Z,27.55
2019-02-27T16:21:13.757Z,27.56
2019-02-27T16:23:42.533Z,27.66
2019-02-27T16:26:11.249Z,27.79
2019-02-27T16:28:39.867Z,27.99
2019-02-27T16:31:08.810Z,27.94
2019-02-27T16:33:37.701Z,28.13
2019-02-27T16:36:06.353Z,28.17
2019-02-27T16:38:34.995Z,28.49
2019-02-27T16:43:52.742Z,28.96
2019-02-27T16:46:22.824Z,29.36
2019-02-27T16:48:51.880Z,29.41
2019-02-27T16:51:20.763Z,29.59
2019-02-27T16:53:52.335Z,30.11
2019-02-27T16:56:19.887Z,30.15
2019-02-27T16:58:48.789Z,30.18
2019-02-27T17:01:18.926Z,30.57
2019-02-27T17:03:52.585Z,30.84
2019-02-27T17:06:18.400Z,31.05
2019-02-27T17:08:47.135Z,31.24
2019-02-27T17:11:15.699Z,31.38
2019-02-27T17:13:46.987Z,31.45
2019-02-27T17:16:15.182Z,31.72
2019-02-27T17:18:43.794Z,31.83
2019-02-27T17:21:12.467Z,31.98
2019-02-27T17:23:43.271Z,32.06
2019-02-27T17:26:11.391Z,32.51
2019-02-27T17:29:22.836Z,32.83
2019-02-27T17:34:20.155Z,33.12
2019-02-27T17:36:49.285Z,33.43
2019-02-27T17:39:18.090Z,33.72
2019-02-27T17:41:46.976Z,33.86
2019-02-27T17:44:15.818Z,33.63
2019-02-27T17:47:03.807Z,32.89
2019-02-27T17:49:32.541Z,32.36
2019-02-27T17:57:25.008Z,32.66
2019-02-27T17:59:52.592Z,32.36
2019-02-27T18:02:21.217Z,32.42
2019-02-27T18:04:53.064Z,32.55
2019-02-27T18:07:20.198Z,32.58
2019-02-27T18:09:48.712Z,32.40
2019-02-27T18:12:17.439Z,32.88
2019-02-27T18:14:46.998Z,32.36
2019-02-27T18:19:52.218Z,31.73
2019-02-27T18:22:20.727Z,31.87
2019-02-27T18:24:49.182Z,32.24
2019-02-27T18:27:17.910Z,31.96
2019-02-27T18:29:46.500Z,31.77
2019-02-27T18:32:15.016Z,31.89
2019-02-27T18:34:43.576Z,31.83
2019-02-27T18:37:12.198Z,31.34
2019-02-27T18:39:40.759Z,31.70
2019-02-27T18:42:09.430Z,31.31
2019-02-27T18:44:38.368Z,32.47
2019-02-27T18:47:08.303Z,31.85
2019-02-27T18:49:37.262Z,31.56
2019-02-27T18:52:06.618Z,31.58
2019-02-27T18:54:36.018Z,31.55
2019-02-27T18:57:04.543Z,31.73
2019-02-27T18:59:33.184Z,31.81
2019-02-27T19:02:01.813Z,32.10
2019-02-27T19:04:35.013Z,31.83
2019-02-27T19:07:00.692Z,32.04
2019-02-27T19:09:32.143Z,32.15
2019-02-27T19:11:59.567Z,32.19
2019-02-27T19:14:28.042Z,32.50
2019-02-27T19:16:56.751Z,32.73
2019-02-27T19:19:25.276Z,32.78
2019-02-27T19:24:29.510Z,32.92
2019-02-27T19:26:58.010Z,33.07
2019-02-27T19:29:26.673Z,33.03
2019-02-27T19:31:55.320Z,33.00
2019-02-27T19:34:24.158Z,32.92
2019-02-27T19:36:52.795Z,33.11
2019-02-27T19:39:22.470Z,32.96
2019-02-27T19:41:51.722Z,33.19
2019-02-27T19:44:20.772Z,33.33
2019-02-27T19:46:49.477Z,33.39
2019-02-27T19:49:18.350Z,33.39
2019-02-27T19:51:46.948Z,33.57
2019-02-27T19:54:18.422Z,33.51
2019-02-27T19:56:55.817Z,33.72
2019-02-27T19:59:24.866Z,33.77
2019-02-27T20:01:54.461Z,33.94
2019-02-27T20:04:23.024Z,34.08
2019-02-27T20:06:51.536Z,34.18
2019-02-27T20:09:20.549Z,34.15
2019-02-27T20:11:50.429Z,34.42
2019-02-27T20:14:19.250Z,34.59
2019-02-27T20:16:47.776Z,34.70
2019-02-27T20:19:22.339Z,34.83
2019-02-27T20:21:46.610Z,34.84
2019-02-27T20:24:15.162Z,35.01
2019-02-27T20:26:44.846Z,35.11
2019-02-27T20:32:03.572Z,35.37
2019-02-27T20:34:32.073Z,35.33
2019-02-27T20:37:03.311Z,35.41
2019-02-27T20:39:30.912Z,35.39
2019-02-27T20:47:29.938Z,35.77
2019-02-27T20:49:58.472Z,35.95
2019-02-27T20:52:27.109Z,36.16
2019-02-27T20:54:58.819Z,36.26
2019-02-27T20:57:25.969Z,36.39
2019-02-27T21:00:00.665Z,36.61
2019-02-27T21:02:24.835Z,36.67
2019-02-27T21:04:53.355Z,36.73
2019-02-27T21:07:22.475Z,36.91
2019-02-27T21:09:52.126Z,36.87
2019-02-27T21:12:20.639Z,37.07
2019-02-27T21:14:49.283Z,37.01
2019-02-27T21:17:20.870Z,37.15
2019-02-27T21:19:48.093Z,37.02
2019-02-27T21:22:16.840Z,37.16
2019-02-27T21:24:45.437Z,37.21
2019-02-27T21:27:34.011Z,37.38
2019-02-27T21:30:02.745Z,37.47
2019-02-27T21:32:33.192Z,37.62
2019-02-27T21:35:01.780Z,37.67
2019-02-27T21:37:30.536Z,37.78
2019-02-27T21:40:02.037Z,37.94
2019-02-27T21:42:29.669Z,38.06
2019-02-27T21:45:03.112Z,38.09
2019-02-27T21:47:28.848Z,38.12
2019-02-27T21:49:57.742Z,38.20
2019-02-27T21:52:26.337Z,38.27
2019-02-27T21:54:54.795Z,38.38
2019-02-27T21:57:25.475Z,38.43
2019-02-27T21:59:53.614Z,38.55
2019-02-27T22:02:22.161Z,38.74
2019-02-27T22:04:50.767Z,38.78
2019-02-27T22:07:19.370Z,38.84
2019-02-27T22:09:48.023Z,38.89
2019-02-27T22:12:16.702Z,39.07
2019-02-27T22:14:45.264Z,39.13
2019-02-27T22:17:13.897Z,39.22
2019-02-27T22:20:01.958Z,39.37
2019-02-27T22:22:30.537Z,39.46
2019-02-27T22:24:59.141Z,39.66
2019-02-27T22:27:27.788Z,39.74
2019-02-27T22:33:23.950Z,40.05
2019-02-27T22:35:52.543Z,40.10
2019-02-27T22:38:25.567Z,40.31
2019-02-27T22:40:51.871Z,40.44
2019-02-27T22:43:21.989Z,40.51
2019-02-27T22:45:50.858Z,40.82
2019-02-27T22:48:19.534Z,40.94
2019-02-27T22:50:48.271Z,40.90
2019-02-27T22:53:16.907Z,40.97
2019-02-27T22:55:45.636Z,40.93
2019-02-27T22:58:14.296Z,41.19
2019-02-27T23:01:22.751Z,41.20
2019-02-27T23:04:31.289Z,41.31
2019-02-27T23:06:59.961Z,41.50
2019-02-27T23:10:08.930Z,41.57
2019-02-27T23:12:39.494Z,41.85
2019-02-27T23:15:47.560Z,41.80
2019-02-27T23:18:56.057Z,41.88
2019-02-27T23:21:26.617Z,41.92
2019-02-27T23:23:55.039Z,42.02
2019-02-27T23:26:23.576Z,42.30
2019-02-27T23:28:52.166Z,42.35
2019-02-27T23:31:23.428Z,42.43
2019-02-27T23:33:51.433Z,42.44
2019-02-27T23:36:22.075Z,42.41
2019-02-27T23:38:50.547Z,42.53
2019-02-27T23:41:22.568Z,42.65
2019-02-27T23:43:49.368Z,42.80
2019-02-27T23:46:18.594Z,42.87
2019-02-27T23:48:48.508Z,42.94
2019-02-27T23:51:17.168Z,42.99
2019-02-27T23:53:45.824Z,43.07
2019-02-27T23:56:19.344Z,43.16
2019-02-27T23:58:44.998Z,43.37
